Time,TemperatureF,DewpointF,PressureIn,WindDirection,WindDirectionDegrees,WindSpeedMPH,WindSpeedGustMPH,Humidity,HourlyPrecipIn,Conditions,Clouds,dailyrainin,SoftwareType,DateUTC
2013-09-01 00:07:00,69.1,68.0,30.09,ESE,103,0.0,0.0,97,0.00,,,0.00,weatherlink.com 1.10,2013-09-01 04:07:00,
2013-09-01 00:22:00,69.0,68.0,30.09,West,274,0.0,1.0,97,0.00,,,0.00,weatherlink.com 1.10,2013-09-01 04:22:00,
2013-09-01 00:37:00,69.0,68.0,30.09,WNW,287,0.0,2.0,97,0.00,,,0.00,weatherlink.com 1.10,2013-09-01 04:37:00,
2013-09-01 00:52:00,68.9,68.0,30.08,West,264,0.0,1.0,97,0.00,,,0.00,weatherlink.com 1.10,2013-09-01 04:52:00,
2013-09-01 01:07:00,68.6,68.0,30.08,West,271,0.0,2.0,97,0.00,,,0.00,weatherlink.com 1.10,2013-09-01 05:07:00,
2013-09-01 01:22:00,68.6,68.0,30.07,West,271,0.0,1.0,97,0.00,,,0.00,weatherlink.com 1.10,2013-09-01 05:22:00,
2013-09-01 01:37:00,68.5,68.0,30.07,West,268,0.0,1.0,97,0.00,,,0.00,weatherlink.com 1.10,2013-09-01 05:37:00,
2013-09-01 01:52:00,68.2,67.0,30.07,West,264,0.0,3.0,97,0.00,,,0.00,weatherlink.com 1.10,2013-09-01 05:52:00,
2013-09-01 02:07:00,67.7,67.0,30.06,West,281,0.0,2.0,97,0.00,,,0.00,weatherlink.com 1.10,2013-09-01 06:07:00,
2013-09-01 02:22:00,67.3,67.0,30.06,NE,53,0.0,2.0,97,0.00,,,0.00,weatherlink.com 1.10,2013-09-01 06:22:00,
2013-09-01 02:37:00,67.0,67.0,30.05,NE,52,0.0,1.0,98,0.00,,,0.00,weatherlink.com 1.10,2013-09-01 06:37:00,
2013-09-01 02:52:00,66.6,66.0,30.05,NE,53,0.0,0.0,98,0.00,,,0.00,weatherlink.com 1.10,2013-09-01 06:52:00,
2013-09-01 03:07:00,66.2,66.0,30.05,NE,52,0.0,0.0,98,0.00,,,0.00,weatherlink.com 1.10,2013-09-01 07:07:00,
2013-09-01 03:22:00,66.0,66.0,30.06,NE,56,0.0,1.0,98,0.00,,,0.00,weatherlink.com 1.10,2013-09-01 07:22:00,
2013-09-01 03:37:00,65.7,65.0,30.06,NE,56,0.0,0.0,98,0.00,,,0.00,weatherlink.com 1.10,2013-09-01 07:37:00,
2013-09-01 03:52:00,66.0,66.0,30.06,WNW,286,0.0,1.0,98,0.00,,,0.00,weatherlink.com 1.10,2013-09-01 07:52:00,
2013-09-01 04:07:00,66.0,66.0,30.06,WNW,285,0.0,1.0,98,0.00,,,0.00,weatherlink.com 1.10,2013-09-01 08:07:00,
2013-09-01 04:22:00,65.7,65.0,30.06,WNW,285,0.0,0.0,98,0.00,,,0.00,weatherlink.com 1.10,2013-09-01 08:22:00,
2013-09-01 04:37:00,65.4,65.0,30.06,WNW,285,0.0,0.0,98,0.00,,,0.00,weatherlink.com 1.10,2013-09-01 08:37:00,
2013-09-01 04:52:00,65.1,65.0,30.06,WNW,285,0.0,0.0,98,0.00,,,0.00,weatherlink.com 1.10,2013-09-01 08:52:00,
2013-09-01 05:07:00,65.0,65.0,30.06,WNW,285,0.0,0.0,98,0.00,,,0.00,weatherlink.com 1.10,2013-09-01 09:07:00,
2013-09-01 05:22:00,64.7,64.0,30.06,WNW,285,0.0,0.0,98,0.00,,,0.00,weatherlink.com 1.10,2013-09-01 09:22:00,
2013-09-01 05:37:00,64.5,64.0,30.06,WNW,285,0.0,0.0,98,0.00,,,0.00,weatherlink.com 1.10,2013-09-01 09:37:00,
2013-09-01 05:52:00,64.3,64.0,30.06,WNW,285,0.0,0.0,98,0.00,,,0.00,weatherlink.com 1.10,2013-09-01 09:52:00,
2013-09-01 06:07:00,64.3,64.0,30.06,WNW,285,0.0,0.0,99,0.00,,,0.00,weatherlink.com 1.10,2013-09-01 10:07:00,
2013-09-01 06:22:00,64.4,64.0,30.06,WNW,285,0.0,0.0,99,0.00,,,0.00,weatherlink.com 1.10,2013-09-01 10:22:00,
2013-09-01 06:37:00,64.1,64.0,30.06,WNW,285,0.0,0.0,99,0.00,,,0.00,weatherlink.com 1.10,2013-09-01 10:37:00,
2013-09-01 06:52:00,63.9,64.0,30.06,WNW,285,0.0,0.0,99,0.00,,,0.00,weatherlink.com 1.10,2013-09-01 10:52:00,
2013-09-01 07:07:00,63.8,64.0,30.05,WNW,285,0.0,0.0,99,0.01,,,0.01,weatherlink.com 1.10,2013-09-01 11:07:00,
2013-09-01 07:22:00,63.8,64.0,30.05,WNW,285,0.0,0.0,99,0.01,,,0.01,weatherlink.com 1.10,2013-09-01 11:22:00,
2013-09-01 07:37:00,63.9,64.0,30.06,WNW,285,0.0,0.0,99,0.01,,,0.01,weatherlink.com 1.10,2013-09-01 11:37:00,
2013-09-01 07:52:00,64.2,64.0,30.07,WNW,285,0.0,0.0,99,0.01,,,0.01,weatherlink.com 1.10,2013-09-01 11:52:00,
2013-09-01 08:07:00,65.0,65.0,30.08,WNW,285,0.0,0.0,99,0.00,,,0.01,weatherlink.com 1.10,2013-09-01 12:07:00,
2013-09-01 08:22:00,65.8,66.0,30.07,NE,37,0.0,1.0,99,0.00,,,0.01,weatherlink.com 1.10,2013-09-01 12:22:00,
2013-09-01 08:37:00,67.3,67.0,30.07,ESE,121,0.0,0.0,99,0.00,,,0.01,weatherlink.com 1.10,2013-09-01 12:37:00,
2013-09-01 08:52:00,69.5,69.0,30.07,West,260,0.0,1.0,98,0.00,,,0.01,weatherlink.com 1.10,2013-09-01 12:52:00,
2013-09-01 09:07:00,71.8,69.0,30.07,NNW,342,0.0,1.0,91,0.00,,,0.01,weatherlink.com 1.10,2013-09-01 13:07:00,
2013-09-01 09:22:00,72.7,70.0,30.07,NNE,24,0.0,1.0,91,0.00,,,0.01,weatherlink.com 1.10,2013-09-01 13:22:00,
2013-09-01 09:37:00,73.4,70.0,30.08,ESE,116,1.0,-999.0,89,-99.99,,,0.01,weatherlink.com 1.10,2013-09-01 13:37:00,
2013-09-01 09:52:00,74.4,71.0,30.07,East,86,0.0,2.0,90,0.00,,,0.01,weatherlink.com 1.10,2013-09-01 13:52:00,
2013-09-01 10:08:00,77.7,71.0,30.07,West,281,5.0,6.0,80,0.00,,,0.01,weatherlink.com 1.10,2013-09-01 14:08:00,
2013-09-01 10:23:00,78.9,72.0,30.07,WNW,287,3.0,6.0,78,0.00,,,0.01,weatherlink.com 1.10,2013-09-01 14:23:00,
2013-09-01 10:38:00,79.6,71.0,30.07,WNW,283,5.0,7.0,76,0.00,,,0.01,weatherlink.com 1.10,2013-09-01 14:38:00,
2013-09-01 10:53:00,81.1,70.0,30.07,West,281,4.0,7.0,70,0.00,,,0.01,weatherlink.com 1.10,2013-09-01 14:53:00,
2013-09-01 11:08:00,79.1,71.0,30.07,WNW,301,2.0,6.0,75,0.00,,,0.01,weatherlink.com 1.10,2013-09-01 15:08:00,
2013-09-01 11:23:00,78.7,72.0,30.07,NW,321,0.0,3.0,79,0.00,,,0.01,weatherlink.com 1.10,2013-09-01 15:23:00,
2013-09-01 11:38:00,79.4,72.0,30.07,WSW,253,1.0,4.0,77,0.00,,,0.01,weatherlink.com 1.10,2013-09-01 15:38:00,
2013-09-01 11:53:00,80.2,73.0,30.07,NNW,333,5.0,5.0,78,0.00,,,0.01,weatherlink.com 1.10,2013-09-01 15:53:00,
2013-09-01 12:09:00,80.3,72.0,30.07,West,263,1.0,4.0,76,0.00,,,0.01,weatherlink.com 1.10,2013-09-01 16:09:00,
2013-09-01 12:23:00,80.6,72.0,30.07,West,280,1.0,8.0,76,0.00,,,0.01,weatherlink.com 1.10,2013-09-01 16:23:00,
2013-09-01 12:38:00,80.4,72.0,30.06,NW,305,4.0,8.0,76,0.00,,,0.01,weatherlink.com 1.10,2013-09-01 16:38:00,
2013-09-01 12:53:00,80.4,73.0,30.05,WSW,248,3.0,9.0,78,0.00,,,0.01,weatherlink.com 1.10,2013-09-01 16:53:00,
2013-09-01 13:08:00,81.8,73.0,30.05,West,273,2.0,8.0,74,0.00,,,0.01,weatherlink.com 1.10,2013-09-01 17:08:00,
2013-09-01 13:23:00,81.6,73.0,30.04,NW,317,6.0,7.0,75,0.00,,,0.01,weatherlink.com 1.10,2013-09-01 17:23:00,
2013-09-01 13:38:00,83.1,73.0,30.03,WNW,297,5.0,11.0,72,0.00,,,0.01,weatherlink.com 1.10,2013-09-01 17:38:00,
2013-09-01 13:53:00,82.3,73.0,30.03,NW,316,2.0,11.0,73,0.00,,,0.01,weatherlink.com 1.10,2013-09-01 17:53:00,
2013-09-01 14:08:00,82.5,73.0,30.02,WNW,287,4.0,8.0,73,0.00,,,0.01,weatherlink.com 1.10,2013-09-01 18:08:00,
2013-09-01 14:23:00,84.0,73.0,30.02,NW,309,2.0,10.0,69,0.00,,,0.01,weatherlink.com 1.10,2013-09-01 18:23:00,
2013-09-01 14:38:00,84.0,73.0,30.01,WNW,297,2.0,7.0,70,0.00,,,0.01,weatherlink.com 1.10,2013-09-01 18:38:00,
2013-09-01 14:53:00,85.3,74.0,30.02,West,266,4.0,9.0,68,0.00,,,0.01,weatherlink.com 1.10,2013-09-01 18:53:00,
2013-09-01 15:08:00,84.4,74.0,30.01,WNW,284,3.0,11.0,72,0.00,,,0.01,weatherlink.com 1.10,2013-09-01 19:08:00,
2013-09-01 15:23:00,82.7,74.0,30.01,NNW,329,3.0,9.0,74,0.00,,,0.01,weatherlink.com 1.10,2013-09-01 19:23:00,
2013-09-01 15:38:00,83.5,75.0,30.00,NW,320,2.0,8.0,76,0.00,,,0.01,weatherlink.com 1.10,2013-09-01 19:38:00,
2013-09-01 15:53:00,83.2,73.0,30.00,NW,320,3.0,12.0,71,0.00,,,0.01,weatherlink.com 1.10,2013-09-01 19:53:00,
2013-09-01 16:08:00,81.4,73.0,29.99,NW,305,3.0,6.0,76,0.00,,,0.01,weatherlink.com 1.10,2013-09-01 20:08:00,
2013-09-01 16:23:00,77.9,73.0,30.00,WNW,290,2.0,7.0,84,0.00,,,0.01,weatherlink.com 1.10,2013-09-01 20:23:00,
2013-09-01 16:38:00,76.9,71.0,30.00,WNW,295,1.0,6.0,82,0.00,,,0.01,weatherlink.com 1.10,2013-09-01 20:38:00,
2013-09-01 16:53:00,76.6,72.0,30.00,NW,304,0.0,4.0,84,0.00,,,0.01,weatherlink.com 1.10,2013-09-01 20:53:00,
2013-09-01 17:08:00,78.7,71.0,29.99,West,280,1.0,4.0,77,0.00,,,0.01,weatherlink.com 1.10,2013-09-01 21:08:00,
2013-09-01 17:23:00,80.9,73.0,29.99,NW,326,0.0,3.0,77,0.00,,,0.01,weatherlink.com 1.10,2013-09-01 21:23:00,
2013-09-01 17:38:00,81.7,74.0,30.00,NNE,21,0.0,3.0,77,0.00,,,0.01,weatherlink.com 1.10,2013-09-01 21:38:00,
2013-09-01 17:53:00,79.6,67.0,30.00,SW,224,0.0,10.0,65,0.00,,,0.01,weatherlink.com 1.10,2013-09-01 21:53:00,
2013-09-01 18:08:00,80.5,68.0,30.00,WNW,293,0.0,3.0,65,0.00,,,0.01,weatherlink.com 1.10,2013-09-01 22:08:00,
2013-09-01 18:23:00,80.7,70.0,30.00,ESE,117,1.0,1.0,70,0.00,,,0.01,weatherlink.com 1.10,2013-09-01 22:23:00,
2013-09-01 18:38:00,82.5,69.0,30.01,West,269,0.0,1.0,64,0.00,,,0.01,weatherlink.com 1.10,2013-09-01 22:38:00,
2013-09-01 18:53:00,80.3,71.0,30.00,ESE,123,0.0,1.0,72,0.00,,,0.01,weatherlink.com 1.10,2013-09-01 22:53:00,
2013-09-01 19:08:00,77.9,70.0,30.02,ESE,122,0.0,1.0,77,0.00,,,0.01,weatherlink.com 1.10,2013-09-01 23:08:00,
2013-09-01 19:23:00,75.5,70.0,30.02,ESE,122,0.0,0.0,84,0.00,,,0.01,weatherlink.com 1.10,2013-09-01 23:23:00,
2013-09-01 19:38:00,74.5,71.0,30.02,ESE,122,0.0,0.0,88,0.00,,,0.01,weatherlink.com 1.10,2013-09-01 23:38:00,
2013-09-01 19:53:00,73.8,70.0,30.02,ESE,123,0.0,0.0,89,0.00,,,0.01,weatherlink.com 1.10,2013-09-01 23:53:00,
2013-09-01 20:08:00,73.0,71.0,30.02,ESE,122,0.0,0.0,92,0.00,,,0.01,weatherlink.com 1.10,2013-09-02 00:08:00,
2013-09-01 20:23:00,72.6,71.0,30.03,ESE,122,0.0,0.0,94,0.00,,,0.01,weatherlink.com 1.10,2013-09-02 00:23:00,
2013-09-01 20:38:00,72.0,70.0,30.03,ESE,118,0.0,1.0,94,0.00,,,0.01,weatherlink.com 1.10,2013-09-02 00:38:00,
2013-09-01 20:53:00,71.4,70.0,30.03,SE,145,0.0,0.0,94,0.00,,,0.01,weatherlink.com 1.10,2013-09-02 00:53:00,
2013-09-01 21:08:00,71.0,70.0,30.04,SE,146,0.0,0.0,95,0.00,,,0.01,weatherlink.com 1.10,2013-09-02 01:08:00,
2013-09-01 21:23:00,70.7,70.0,30.04,SE,145,0.0,0.0,96,0.00,,,0.01,weatherlink.com 1.10,2013-09-02 01:23:00,
2013-09-01 21:38:00,70.4,69.0,30.05,SE,145,0.0,0.0,96,0.01,,,0.02,weatherlink.com 1.10,2013-09-02 01:38:00,
2013-09-01 21:53:00,70.2,69.0,30.05,SE,145,0.0,0.0,96,0.01,,,0.02,weatherlink.com 1.10,2013-09-02 01:53:00,
2013-09-01 22:08:00,69.9,69.0,30.06,SE,145,0.0,0.0,97,0.01,,,0.02,weatherlink.com 1.10,2013-09-02 02:08:00,
2013-09-01 22:24:00,69.6,69.0,30.06,WSW,240,0.0,0.0,97,0.01,,,0.02,weatherlink.com 1.10,2013-09-02 02:24:00,
2013-09-01 22:39:00,69.2,68.0,30.06,WSW,248,0.0,0.0,96,0.00,,,0.02,weatherlink.com 1.10,2013-09-02 02:39:00,
2013-09-01 22:55:00,68.7,68.0,30.06,WSW,248,0.0,0.0,96,0.00,,,0.02,weatherlink.com 1.10,2013-09-02 02:55:00,
2013-09-01 23:09:00,68.4,68.0,30.07,WSW,248,0.0,0.0,97,0.00,,,0.02,weatherlink.com 1.10,2013-09-02 03:09:00,
2013-09-01 23:24:00,68.2,67.0,30.06,WSW,248,0.0,0.0,97,0.00,,,0.02,weatherlink.com 1.10,2013-09-02 03:24:00,
2013-09-01 23:39:00,68.1,67.0,30.06,WSW,249,0.0,0.0,97,0.00,,,0.02,weatherlink.com 1.10,2013-09-02 03:39:00,
2013-09-01 23:54:00,67.9,67.0,30.06,WSW,248,0.0,0.0,97,0.00,,,0.02,weatherlink.com 1.10,2013-09-02 03:54:00,